Time;durP1;ratioP1;P1;durP2;ratioP2;P2;SDS_P1;SDS_P2;PMS_P1;PMS_P2;Temp;Humidity;BMP_temperature;BMP_pressure;BME280_temperature;BME280_humidity;BME280_pressure;Samples;Min_cycle;Max_cycle;Signal;HPM_P1;HPM_P2
2023/10/04 00:00:15;;;;;;;10.87;2.60;;;13.30;54.10;;;;;;5008829;28;20550;-52
2023/10/04 00:02:44;;;;;;;6.23;2.57;;;13.20;54.60;;;;;;5013030;28;20435;-52
2023/10/04 00:05:14;;;;;;;3.43;2.30;;;13.20;52.60;;;;;;5012535;28;20492;-52
2023/10/04 00:07:41;;;;;;;4.33;2.37;;;13.20;50.30;;;;;;5013727;28;20443;-52
2023/10/04 00:10:09;;;;;;;11.73;2.40;;;13.10;47.20;;;;;;5038077;22;20492;-52
2023/10/04 00:12:35;;;;;;;6.67;2.70;;;13.10;51.60;;;;;;5001422;28;20545;-53
2023/10/04 00:15:02;;;;;;;12.53;2.67;;;13.10;53.80;;;;;;5005975;28;20460;-53
2023/10/04 00:17:29;;;;;;;6.50;2.27;;;13.10;54.40;;;;;;5005579;28;20464;-52
2023/10/04 00:19:57;;;;;;;6.37;2.60;;;13.10;53.50;;;;;;5007549;28;20483;-51
2023/10/04 00:22:25;;;;;;;7.27;2.80;;;13.10;55.60;;;;;;5011837;28;20543;-52
2023/10/04 00:24:52;;;;;;;7.20;3.00;;;13.10;58.00;;;;;;5012017;28;20545;-53
2023/10/04 00:27:19;;;;;;;10.87;2.50;;;13.10;56.30;;;;;;5007989;28;20460;-56
2023/10/04 00:29:45;;;;;;;7.23;2.90;;;13.00;58.00;;;;;;5014650;28;20498;-55
2023/10/04 00:32:13;;;;;;;4.80;2.50;;;13.10;59.00;;;;;;5012369;28;21067;-56
2023/10/04 00:34:40;;;;;;;8.73;2.67;;;13.00;59.30;;;;;;5014331;28;21968;-57
2023/10/04 00:37:09;;;;;;;8.13;2.97;;;13.00;60.90;;;;;;5019105;28;20543;-54
2023/10/04 00:39:36;;;;;;;12.23;3.50;;;13.00;59.50;;;;;;5010851;28;20471;-53
2023/10/04 00:42:04;;;;;;;6.70;2.90;;;12.90;52.10;;;;;;5009827;28;20466;-53
2023/10/04 00:44:34;;;;;;;9.40;2.60;;;12.90;55.60;;;;;;5011929;28;20495;-53
2023/10/04 00:47:02;;;;;;;13.67;3.23;;;12.90;56.00;;;;;;5010766;28;20554;-55
2023/10/04 00:49:31;;;;;;;7.90;2.97;;;13.00;58.90;;;;;;5010894;28;20571;-55
2023/10/04 00:51:59;;;;;;;7.30;2.40;;;13.10;65.70;;;;;;5011228;28;20561;-54
2023/10/04 00:54:27;;;;;;;7.33;2.70;;;13.20;70.40;;;;;;5011777;28;20922;-54
2023/10/04 00:56:55;;;;;;;10.00;2.73;;;13.10;67.90;;;;;;5011947;28;20498;-53
2023/10/04 00:59:21;;;;;;;12.33;3.10;;;13.10;65.80;;;;;;5009078;28;20488;-54
2023/10/04 01:01:48;;;;;;;8.10;2.70;;;13.20;69.60;;;;;;5012158;28;20854;-54
2023/10/04 01:04:15;;;;;;;12.33;2.67;;;13.20;73.80;;;;;;5009791;28;20459;-55
2023/10/04 01:06:44;;;;;;;6.00;2.80;;;13.30;74.40;;;;;;5011906;28;20446;-54
2023/10/04 01:09:11;;;;;;;7.83;2.43;;;13.30;75.50;;;;;;5011542;28;20464;-54
2023/10/04 01:11:45;;;;;;;4.90;2.43;;;13.20;75.10;;;;;;5008611;28;20565;-53
2023/10/04 01:14:23;;;;;;;7.37;2.30;;;13.10;69.00;;;;;;5010181;28;20800;-56
2023/10/04 01:16:51;;;;;;;7.07;2.40;;;13.10;67.80;;;;;;5009539;28;20463;-56
2023/10/04 01:19:19;;;;;;;8.33;2.67;;;13.00;67.00;;;;;;5010272;28;20503;-56
2023/10/04 01:21:47;;;;;;;5.20;2.40;;;13.00;66.40;;;;;;5011744;28;20436;-55
2023/10/04 01:24:15;;;;;;;6.80;2.10;;;12.90;65.90;;;;;;5011261;28;20440;-57
2023/10/04 01:26:43;;;;;;;6.50;2.37;;;12.90;64.10;;;;;;5010462;28;20464;-56
2023/10/04 01:29:11;;;;;;;13.07;3.00;;;12.80;61.70;;;;;;5016014;28;20560;-56
2023/10/04 01:31:38;;;;;;;13.93;2.90;;;12.80;61.30;;;;;;5010637;28;20533;-57
2023/10/04 01:34:06;;;;;;;8.53;2.70;;;12.80;60.20;;;;;;5011377;28;20454;-57
2023/10/04 01:36:33;;;;;;;4.60;2.47;;;12.80;59.30;;;;;;5012025;28;20448;-56
2023/10/04 01:39:00;;;;;;;9.60;2.50;;;12.70;57.40;;;;;;5013455;28;20839;-55
2023/10/04 01:41:28;;;;;;;12.37;3.10;;;12.70;57.50;;;;;;5014995;28;20451;-54
2023/10/04 01:44:00;;;;;;;9.70;4.17;;;12.70;54.30;;;;;;5011409;28;20526;-55
2023/10/04 01:46:27;;;;;;;4.57;2.30;;;12.70;52.30;;;;;;5010227;28;20491;-56
2023/10/04 01:48:56;;;;;;;8.53;2.53;;;12.70;52.50;;;;;;5008768;28;20865;-55
2023/10/04 01:51:27;;;;;;;6.80;2.43;;;12.70;51.60;;;;;;5011016;28;20480;-56
2023/10/04 01:53:57;;;;;;;8.43;3.03;;;12.60;51.10;;;;;;5010079;28;20524;-56
2023/10/04 01:56:24;;;;;;;4.90;2.53;;;12.60;48.40;;;;;;5011194;28;20454;-56
2023/10/04 01:58:52;;;;;;;4.53;2.30;;;12.60;48.10;;;;;;5010363;28;20476;-55
2023/10/04 02:01:18;;;;;;;15.13;3.00;;;12.60;44.60;;;;;;5010996;28;20488;-56
2023/10/04 02:03:45;;;;;;;7.83;3.47;;;12.50;44.40;;;;;;5014252;28;20514;-56
2023/10/04 02:06:12;;;;;;;8.60;2.43;;;12.60;37.10;;;;;;5012874;28;21030;-55
2023/10/04 02:08:39;;;;;;;9.37;3.17;;;12.50;42.00;;;;;;5014716;28;20450;-57
2023/10/04 02:11:06;;;;;;;10.53;3.17;;;12.50;39.10;;;;;;5013547;28;20494;-55
2023/10/04 02:13:35;;;;;;;9.40;3.27;;;12.50;38.40;;;;;;5014355;28;20574;-55
2023/10/04 02:16:08;;;;;;;6.43;2.63;;;12.40;32.60;;;;;;5014025;28;20495;-55
2023/10/04 02:18:34;;;;;;;13.40;2.87;;;12.40;31.90;;;;;;5014629;28;20448;-56
2023/10/04 02:21:01;;;;;;;7.67;2.53;;;12.40;29.60;;;;;;5013102;28;20463;-56
2023/10/04 02:23:29;;;;;;;11.47;2.80;;;12.40;30.50;;;;;;5014182;28;20818;-55
2023/10/04 02:25:57;;;;;;;5.50;2.50;;;12.40;30.60;;;;;;5014648;28;20480;-56
2023/10/04 02:28:25;;;;;;;11.60;2.30;;;12.30;29.30;;;;;;5013335;28;20459;-56
2023/10/04 02:30:54;;;;;;;4.17;2.20;;;12.30;27.20;;;;;;5012447;28;20463;-56
2023/10/04 02:33:22;;;;;;;8.50;3.10;;;12.30;26.80;;;;;;5016774;28;20487;-55
2023/10/04 02:35:50;;;;;;;4.57;1.97;;;12.30;23.40;;;;;;5016455;28;21004;-55
2023/10/04 02:38:23;;;;;;;10.90;3.00;;;12.30;25.70;;;;;;5014956;28;20463;-56
2023/10/04 02:40:50;;;;;;;13.30;3.53;;;12.30;26.20;;;;;;5009397;28;20998;-54
2023/10/04 02:43:17;;;;;;;9.60;2.33;;;12.30;25.40;;;;;;5013862;28;20525;-56
2023/10/04 02:45:47;;;;;;;5.27;2.40;;;12.30;24.60;;;;;;5013319;28;20460;-56
2023/10/04 02:48:14;;;;;;;6.37;2.67;;;12.20;24.60;;;;;;5012633;28;20965;-55
2023/10/04 02:50:42;;;;;;;6.87;2.90;;;12.30;22.20;;;;;;5013970;28;20467;-57
2023/10/04 02:53:12;;;;;;;5.77;2.43;;;12.30;24.10;;;;;;5013167;28;20483;-57
2023/10/04 02:55:39;;;;;;;12.03;3.03;;;12.30;26.90;;;;;;5012076;28;20465;-55
2023/10/04 02:58:07;;;;;;;10.53;2.67;;;12.30;25.90;;;;;;5010902;28;20486;-55
2023/10/04 03:00:36;;;;;;;8.50;2.57;;;12.30;25.10;;;;;;5013384;28;20476;-56
2023/10/04 03:03:04;;;;;;;6.53;2.53;;;12.30;23.20;;;;;;5012213;28;20860;-56
2023/10/04 03:05:32;;;;;;;8.13;2.77;;;12.30;25.80;;;;;;5013993;28;20894;-55
2023/10/04 03:08:06;;;;;;;8.83;3.20;;;12.30;23.20;;;;;;5015701;28;20467;-55
2023/10/04 03:10:33;;;;;;;9.23;2.97;;;12.30;23.80;;;;;;5016750;28;20503;-55
2023/10/04 03:13:06;;;;;;;7.90;2.80;;;12.30;24.00;;;;;;5011928;28;20509;-56
2023/10/04 03:15:33;;;;;;;8.37;3.17;;;12.30;23.50;;;;;;5011992;28;20546;-56
2023/10/04 03:18:02;;;;;;;6.20;3.00;;;12.20;23.10;;;;;;5013425;28;20490;-55
2023/10/04 03:20:30;;;;;;;6.20;3.00;;;12.20;22.30;;;;;;5013442;28;20534;-56
2023/10/04 03:22:59;;;;;;;4.33;2.40;;;12.20;24.10;;;;;;5012804;28;20550;-56
2023/10/04 03:25:27;;;;;;;13.70;3.23;;;12.20;22.90;;;;;;5013378;28;20530;-56
2023/10/04 03:27:54;;;;;;;9.43;2.90;;;12.20;22.40;;;;;;5013421;28;20946;-55
2023/10/04 03:30:21;;;;;;;6.53;2.83;;;12.20;23.50;;;;;;5010430;28;20486;-55
2023/10/04 03:32:52;;;;;;;6.57;2.30;;;12.10;25.00;;;;;;5012388;28;20558;-56
2023/10/04 03:35:20;;;;;;;6.90;3.00;;;12.10;23.90;;;;;;5005194;28;20443;-55
2023/10/04 03:37:54;;;;;;;5.60;2.53;;;12.10;24.10;;;;;;5013255;28;20444;-55
2023/10/04 03:40:22;;;;;;;10.07;3.10;;;12.10;22.20;;;;;;5013112;28;20468;-56
2023/10/04 03:42:50;;;;;;;16.20;3.90;;;12.10;22.70;;;;;;5012457;28;20455;-56
2023/10/04 03:45:18;;;;;;;5.20;2.30;;;12.10;21.40;;;;;;5013069;28;20500;-56
2023/10/04 03:47:47;;;;;;;10.10;3.67;;;12.00;22.60;;;;;;5010421;28;20464;-55
2023/10/04 03:50:17;;;;;;;14.50;3.87;;;12.10;72.30;;;;;;5012405;28;20517;-55
2023/10/04 03:52:43;;;;;;;11.40;3.37;;;12.10;22.40;;;;;;5012732;28;20606;-55
2023/10/04 03:55:11;;;;;;;9.87;3.30;;;12.10;21.80;;;;;;5012730;28;20798;-55
2023/10/04 03:57:42;;;;;;;8.37;3.00;;;12.00;21.20;;;;;;5013436;28;20462;-56
2023/10/04 04:00:13;;;;;;;8.93;3.73;;;12.00;21.00;;;;;;5012744;28;20495;-55
2023/10/04 04:02:41;;;;;;;7.53;3.20;;;12.00;74.80;;;;;;5010428;28;20455;-54
2023/10/04 04:05:11;;;;;;;5.80;2.73;;;12.00;81.60;;;;;;5010874;28;20984;-56
2023/10/04 04:07:38;;;;;;;8.57;3.83;;;12.00;90.60;;;;;;5013078;28;20454;-56
2023/10/04 04:10:07;;;;;;;6.70;4.30;;;12.00;83.00;;;;;;5012603;28;20475;-56
2023/10/04 04:12:36;;;;;;;12.67;4.40;;;12.00;77.60;;;;;;5011893;28;20496;-56
2023/10/04 04:15:03;;;;;;;8.83;3.40;;;12.00;84.50;;;;;;5018426;28;20490;-56
2023/10/04 04:17:33;;;;;;;4.00;2.63;;;12.00;20.80;;;;;;5016146;28;20455;-56
2023/10/04 04:19:59;;;;;;;7.13;3.60;;;12.00;71.80;;;;;;5008546;28;21057;-55
2023/10/04 04:22:27;;;;;;;11.13;4.80;;;12.00;78.80;;;;;;5014645;28;20460;-55
2023/10/04 04:24:54;;;;;;;7.50;4.23;;;12.00;77.10;;;;;;5007246;28;20474;-56
2023/10/04 04:27:22;;;;;;;5.90;3.33;;;12.00;84.80;;;;;;5006312;28;20967;-55
2023/10/04 04:29:51;;;;;;;13.47;4.20;;;12.00;82.90;;;;;;5010514;28;20572;-55
2023/10/04 04:32:18;;;;;;;5.77;3.30;;;12.00;82.50;;;;;;5010268;28;20574;-55
2023/10/04 04:34:46;;;;;;;9.40;3.60;;;12.00;79.30;;;;;;5014450;28;20491;-56
2023/10/04 04:37:14;;;;;;;8.30;3.47;;;12.00;79.20;;;;;;5010219;28;20554;-55
2023/10/04 04:39:40;;;;;;;9.47;3.50;;;11.90;80.30;;;;;;5009254;28;20523;-56
2023/10/04 04:42:11;;;;;;;8.87;3.67;;;11.90;87.80;;;;;;5011673;28;20455;-56
2023/10/04 04:44:41;;;;;;;7.13;2.93;;;12.00;93.00;;;;;;5012105;28;21166;-56
2023/10/04 04:47:07;;;;;;;11.77;3.90;;;12.00;98.00;;;;;;5010983;28;20908;-55
2023/10/04 04:49:34;;;;;;;12.07;3.73;;;12.00;92.20;;;;;;5011745;28;20977;-56
2023/10/04 04:52:05;;;;;;;10.57;4.00;;;12.00;81.40;;;;;;5011627;28;20950;-55
2023/10/04 04:54:33;;;;;;;8.10;3.47;;;12.10;80.80;;;;;;5009120;28;20475;-56
2023/10/04 04:57:00;;;;;;;11.83;5.03;;;12.00;74.80;;;;;;5010419;28;20491;-56
2023/10/04 04:59:27;;;;;;;9.20;3.47;;;12.10;81.70;;;;;;5011593;28;20468;-56
2023/10/04 05:01:55;;;;;;;6.77;3.20;;;12.10;21.60;;;;;;5011180;28;20509;-54
2023/10/04 05:04:22;;;;;;;9.77;3.60;;;12.10;20.40;;;;;;5003968;28;20531;-54
2023/10/04 05:06:49;;;;;;;12.73;3.57;;;12.10;24.50;;;;;;5011378;28;20456;-55
2023/10/04 05:09:17;;;;;;;6.97;3.80;;;12.20;25.70;;;;;;5009921;28;21044;-56
2023/10/04 05:11:45;;;;;;;11.73;3.63;;;12.20;27.30;;;;;;5010117;28;20832;-55
2023/10/04 05:14:11;;;;;;;7.60;3.77;;;12.10;27.70;;;;;;5011417;28;21076;-55
2023/10/04 05:16:38;;;;;;;11.73;4.37;;;12.10;24.50;;;;;;5011126;28;20768;-55
2023/10/04 05:19:08;;;;;;;7.83;3.70;;;12.10;26.90;;;;;;5011561;28;20818;-54
2023/10/04 05:21:36;;;;;;;7.40;4.03;;;12.10;27.70;;;;;;5011774;28;20436;-55
2023/10/04 05:24:03;;;;;;;7.50;3.60;;;12.10;29.50;;;;;;5011394;28;20476;-55
2023/10/04 05:26:32;;;;;;;11.13;3.87;;;12.10;28.30;;;;;;5011308;28;20471;-55
2023/10/04 05:29:00;;;;;;;7.67;3.67;;;12.10;27.90;;;;;;5008106;28;20578;-57
2023/10/04 05:31:26;;;;;;;7.50;3.60;;;12.10;27.70;;;;;;5007141;28;20462;-55
2023/10/04 05:33:53;;;;;;;8.13;3.80;;;12.10;27.60;;;;;;5011330;28;21059;-55
2023/10/04 05:36:20;;;;;;;12.60;3.93;;;12.00;26.80;;;;;;5011230;28;20471;-55
2023/10/04 05:38:47;;;;;;;11.40;3.70;;;12.00;24.10;;;;;;5014864;28;20475;-55
2023/10/04 05:41:14;;;;;;;8.17;3.77;;;12.00;25.70;;;;;;5014882;28;20483;-55
2023/10/04 05:43:43;;;;;;;8.33;3.07;;;12.10;25.40;;;;;;5014070;28;20452;-55
2023/10/04 05:46:11;;;;;;;6.80;3.43;;;12.00;26.70;;;;;;5014279;28;20474;-55
2023/10/04 05:48:37;;;;;;;5.63;3.70;;;12.00;26.40;;;;;;5015178;28;20881;-55
2023/10/04 05:53:34;;;;;;;11.70;3.73;;;12.10;21.00;;;;;;4988445;28;20233;-56
2023/10/04 05:56:01;;;;;;;11.80;3.40;;;12.20;80.70;;;;;;4993589;28;20460;-56
2023/10/04 05:58:28;;;;;;;8.93;3.87;;;12.20;21.90;;;;;;4995626;28;20433;-56
2023/10/04 06:00:56;;;;;;;7.10;3.07;;;12.10;24.40;;;;;;4992615;28;20483;-56
2023/10/04 06:03:23;;;;;;;13.40;3.67;;;12.20;28.10;;;;;;4986288;28;20865;-56
2023/10/04 06:05:50;;;;;;;9.40;3.50;;;12.20;25.80;;;;;;4995329;28;20444;-55
2023/10/04 06:08:18;;;;;;;8.17;3.33;;;12.20;29.30;;;;;;5038181;22;20506;-54
2023/10/04 06:10:46;;;;;;;6.67;3.57;;;12.30;30.00;;;;;;5021711;28;20446;-55
2023/10/04 06:13:12;;;;;;;9.37;3.70;;;12.30;32.70;;;;;;5023190;28;20529;-53
2023/10/04 06:15:41;;;;;;;6.77;3.27;;;12.30;32.60;;;;;;5021120;28;20471;-54
2023/10/04 06:18:09;;;;;;;12.20;3.43;;;12.30;31.10;;;;;;5013816;28;20522;-53
2023/10/04 06:20:36;;;;;;;8.40;4.03;;;12.40;31.10;;;;;;5026280;28;20458;-53
2023/10/04 06:23:05;;;;;;;13.60;4.10;;;12.40;34.80;;;;;;5024790;28;20471;-54
2023/10/04 06:25:33;;;;;;;13.57;4.10;;;12.40;34.30;;;;;;5007379;28;20455;-54
2023/10/04 06:28:01;;;;;;;10.00;3.93;;;12.50;39.40;;;;;;5014657;28;20459;-55
2023/10/04 06:30:29;;;;;;;11.17;3.90;;;12.50;37.80;;;;;;5015318;28;20471;-54
2023/10/04 06:32:57;;;;;;;8.60;3.70;;;12.60;45.00;;;;;;5013909;28;20565;-55
2023/10/04 06:35:26;;;;;;;5.83;2.77;;;12.60;42.50;;;;;;5014631;28;20462;-54
2023/10/04 06:37:54;;;;;;;6.60;3.20;;;12.60;43.00;;;;;;5014669;28;20565;-54
2023/10/04 06:40:22;;;;;;;7.80;3.47;;;12.70;43.80;;;;;;5013724;28;20832;-53
2023/10/04 06:42:50;;;;;;;10.43;3.23;;;12.70;44.80;;;;;;5003016;28;20479;-54
2023/10/04 06:45:18;;;;;;;10.20;4.10;;;12.80;45.40;;;;;;5013645;28;20804;-55
2023/10/04 06:47:47;;;;;;;6.10;3.70;;;12.80;48.20;;;;;;5018768;28;20873;-54
2023/10/04 06:50:14;;;;;;;7.87;3.07;;;12.90;47.00;;;;;;5012762;28;21027;-54
2023/10/04 06:52:43;;;;;;;8.33;3.37;;;12.90;50.10;;;;;;5022161;28;20545;-55
2023/10/04 06:55:11;;;;;;;15.20;3.80;;;13.00;50.70;;;;;;5018997;28;20889;-54
2023/10/04 06:57:39;;;;;;;17.57;4.20;;;13.00;52.20;;;;;;5012757;28;20479;-54
2023/10/04 07:00:13;;;;;;;10.00;3.33;;;13.00;52.70;;;;;;5009262;28;20828;-54
2023/10/04 07:02:44;;;;;;;7.70;3.00;;;13.00;55.70;;;;;;5013104;28;20528;-54
2023/10/04 07:05:13;;;;;;;16.83;3.80;;;13.00;54.60;;;;;;5024215;28;20539;-54
2023/10/04 07:07:39;;;;;;;11.17;3.83;;;13.00;53.80;;;;;;5018423;28;20996;-55
2023/10/04 07:10:09;;;;;;;12.80;4.50;;;13.00;58.80;;;;;;5022481;28;20444;-54
2023/10/04 07:12:36;;;;;;;11.07;3.77;;;13.00;53.60;;;;;;5029548;28;20451;-54
2023/10/04 07:15:04;;;;;;;6.73;4.13;;;13.10;54.40;;;;;;5030473;28;20481;-55
2023/10/04 07:17:31;;;;;;;10.53;3.50;;;13.10;52.40;;;;;;5019733;28;20485;-55
2023/10/04 07:19:58;;;;;;;10.03;3.77;;;13.20;58.10;;;;;;5014131;28;20463;-55
2023/10/04 07:22:29;;;;;;;9.67;3.80;;;13.30;60.60;;;;;;5012800;28;20950;-55
2023/10/04 07:24:56;;;;;;;7.53;3.77;;;13.30;58.20;;;;;;5021123;28;20481;-55
2023/10/04 07:27:24;;;;;;;13.57;4.90;;;13.30;62.80;;;;;;5015981;28;20514;-54
2023/10/04 07:29:52;;;;;;;9.57;3.70;;;13.30;65.90;;;;;;5029964;28;20444;-54
2023/10/04 07:32:19;;;;;;;12.33;3.63;;;13.40;63.20;;;;;;5009978;28;20460;-54
2023/10/04 07:34:45;;;;;;;11.27;3.67;;;13.50;66.60;;;;;;5018064;28;20997;-54
2023/10/04 07:37:12;;;;;;;13.03;3.80;;;13.50;65.30;;;;;;5011834;28;20515;-54
2023/10/04 07:39:39;;;;;;;4.60;2.40;;;13.50;65.20;;;;;;5018127;28;20514;-55
2023/10/04 07:42:05;;;;;;;13.00;3.30;;;13.50;64.70;;;;;;5015766;28;20495;-55
2023/10/04 07:44:33;;;;;;;9.10;3.17;;;13.60;73.30;;;;;;5022113;28;20526;-54
2023/10/04 07:47:00;;;;;;;8.60;3.30;;;13.70;71.00;;;;;;5011871;28;21008;-55
2023/10/04 07:49:27;;;;;;;7.03;2.97;;;13.70;67.10;;;;;;5014502;28;20831;-54
2023/10/04 07:51:54;;;;;;;8.70;3.10;;;13.80;74.60;;;;;;5013129;28;20752;-55
2023/10/04 07:54:21;;;;;;;10.70;3.63;;;13.90;81.10;;;;;;5013622;28;20566;-55
2023/10/04 07:56:48;;;;;;;15.07;3.40;;;13.90;78.30;;;;;;5013213;28;20479;-55
2023/10/04 07:59:15;;;;;;;10.33;3.43;;;14.00;81.90;;;;;;5023167;28;20500;-55
2023/10/04 08:01:43;;;;;;;12.60;3.33;;;14.10;95.00;;;;;;5007832;28;20464;-56
2023/10/04 08:04:11;;;;;;;7.63;2.77;;;14.10;89.60;;;;;;5013528;28;20957;-55
2023/10/04 08:06:39;;;;;;;6.97;2.83;;;14.20;98.90;;;;;;5020690;28;20480;-54
2023/10/04 08:09:06;;;;;;;8.33;3.00;;;14.30;96.80;;;;;;5029668;28;20819;-55
2023/10/04 08:11:33;;;;;;;10.27;3.30;;;14.30;97.60;;;;;;5016031;28;20526;-55
2023/10/04 08:13:59;;;;;;;12.33;3.13;;;14.30;99.90;;;;;;5016825;28;20549;-55
2023/10/04 08:16:27;;;;;;;13.00;3.67;;;14.40;98.90;;;;;;5008996;28;20526;-57
2023/10/04 08:18:55;;;;;;;10.57;3.27;;;14.40;99.90;;;;;;5012264;28;20494;-57
2023/10/04 08:21:22;;;;;;;14.10;3.77;;;14.40;99.90;;;;;;5012390;28;20715;-57
2023/10/04 08:23:49;;;;;;;7.97;3.20;;;14.50;99.90;;;;;;5012376;28;20530;-57
2023/10/04 08:26:16;;;;;;;10.30;3.20;;;14.40;99.90;;;;;;5012265;28;20500;-56
2023/10/04 08:28:43;;;;;;;11.17;3.40;;;14.50;99.90;;;;;;5011849;28;20964;-56
2023/10/04 08:31:11;;;;;;;11.43;3.00;;;14.50;99.90;;;;;;5023360;28;20459;-57
2023/10/04 08:33:37;;;;;;;10.87;4.00;;;14.50;99.90;;;;;;5008152;28;20499;-58
2023/10/04 08:36:10;;;;;;;10.77;3.40;;;14.50;99.90;;;;;;5011833;28;20444;-55
2023/10/04 08:38:37;;;;;;;7.50;2.90;;;14.60;99.90;;;;;;5012241;28;20542;-57
2023/10/04 08:41:04;;;;;;;10.50;2.80;;;14.60;99.90;;;;;;5019852;28;20970;-56
2023/10/04 08:43:30;;;;;;;11.23;3.60;;;14.60;99.90;;;;;;5009168;28;20531;-56
2023/10/04 08:45:57;;;;;;;8.93;4.27;;;14.80;99.90;;;;;;5011038;28;20458;-57
2023/10/04 08:48:26;;;;;;;17.40;3.87;;;14.80;99.90;;;;;;5020183;28;20463;-57
2023/10/04 08:50:56;;;;;;;35.23;4.60;;;14.90;99.90;;;;;;5010455;28;20470;-57
2023/10/04 08:53:40;;;;;;;15.07;4.13;;;14.90;99.90;;;;;;5013391;28;21007;-56
2023/10/04 08:56:10;;;;;;;8.27;3.07;;;14.90;99.90;;;;;;5015374;28;20472;-57
2023/10/04 08:58:37;;;;;;;10.27;4.03;;;15.00;99.90;;;;;;5010425;28;20483;-56
2023/10/04 09:01:06;;;;;;;10.47;3.27;;;15.00;99.90;;;;;;5009222;28;20462;-58
2023/10/04 09:03:34;;;;;;;8.33;2.97;;;14.90;99.90;;;;;;5009046;28;20455;-56
2023/10/04 09:06:02;;;;;;;18.80;4.63;;;14.90;99.90;;;;;;5005414;28;20459;-55
2023/10/04 09:08:31;;;;;;;9.60;3.43;;;14.90;99.90;;;;;;5009581;28;20479;-54
2023/10/04 09:10:59;;;;;;;8.47;2.67;;;14.90;99.90;;;;;;5014018;28;20490;-55
2023/10/04 09:13:26;;;;;;;16.83;3.47;;;14.80;99.90;;;;;;5014825;28;20471;-55
2023/10/04 09:15:53;;;;;;;30.47;3.80;;;14.80;99.90;;;;;;5018720;28;20468;-55
2023/10/04 09:18:27;;;;;;;9.40;3.20;;;14.80;99.90;;;;;;5019768;28;20467;-55
2023/10/04 09:20:53;;;;;;;9.43;3.03;;;14.80;99.90;;;;;;5007670;28;20467;-56
2023/10/04 09:23:22;;;;;;;17.40;3.77;;;14.90;99.90;;;;;;5009529;28;20941;-55
2023/10/04 09:25:54;;;;;;;12.47;4.10;;;14.90;99.90;;;;;;5008517;28;20460;-54
2023/10/04 09:28:20;;;;;;;18.10;4.70;;;14.90;99.90;;;;;;5015291;28;20492;-55
2023/10/04 09:30:47;;;;;;;9.30;3.20;;;14.90;99.90;;;;;;5017081;28;20514;-55
2023/10/04 09:33:24;;;;;;;10.30;3.03;;;15.00;99.90;;;;;;5012009;28;21062;-55
2023/10/04 09:35:51;;;;;;;14.17;4.13;;;15.00;99.90;;;;;;5008213;28;20466;-55
2023/10/04 09:38:20;;;;;;;10.70;3.00;;;15.00;99.90;;;;;;5011880;28;20485;-55
2023/10/04 09:40:55;;;;;;;10.67;3.10;;;15.00;99.90;;;;;;5014071;28;20462;-55
2023/10/04 09:43:35;;;;;;;10.73;2.90;;;15.10;99.90;;;;;;5011841;28;20517;-55
2023/10/04 09:46:02;;;;;;;15.10;3.17;;;15.20;99.90;;;;;;5018041;28;20464;-55
2023/10/04 09:48:33;;;;;;;9.20;3.57;;;15.40;99.90;;;;;;5011095;28;20796;-55
2023/10/04 09:51:01;;;;;;;14.47;3.50;;;15.70;99.90;;;;;;5008743;28;20514;-55
2023/10/04 09:53:28;;;;;;;11.40;3.60;;;15.90;99.90;;;;;;5021704;28;20447;-56
2023/10/04 09:56:00;;;;;;;7.43;2.97;;;16.00;99.90;;;;;;5008898;28;20525;-55
2023/10/04 09:58:29;;;;;;;7.33;2.73;;;15.90;99.90;;;;;;5006178;28;20519;-56
2023/10/04 10:00:57;;;;;;;10.40;3.53;;;15.90;99.90;;;;;;5016080;28;22350;-55
2023/10/04 10:03:30;;;;;;;16.93;4.00;;;15.80;99.90;;;;;;5007037;28;20443;-55
2023/10/04 10:05:57;;;;;;;7.67;3.40;;;15.80;99.90;;;;;;5010315;28;20485;-55
2023/10/04 10:08:32;;;;;;;11.60;3.50;;;15.80;99.90;;;;;;5013084;28;20538;-56
2023/10/04 10:11:01;;;;;;;10.80;4.07;;;15.60;99.90;;;;;;5016427;28;20482;-56
2023/10/04 10:13:29;;;;;;;10.67;3.57;;;15.60;99.90;;;;;;5017252;28;20444;-54
2023/10/04 10:15:57;;;;;;;11.23;2.67;;;15.60;99.90;;;;;;5005180;28;20868;-56
2023/10/04 10:18:24;;;;;;;14.63;3.70;;;15.60;99.90;;;;;;5010861;28;20472;-55
2023/10/04 10:20:51;;;;;;;9.37;3.40;;;15.70;99.90;;;;;;5007218;28;20957;-55
2023/10/04 10:23:17;;;;;;;11.53;3.73;;;15.70;99.90;;;;;;5013374;28;20887;-56
2023/10/04 10:26:19;;;;;;;7.20;3.00;;;15.70;99.90;;;;;;5013683;28;20491;-55
2023/10/04 10:28:47;;;;;;;11.37;3.10;;;15.70;99.90;;;;;;5001025;28;20538;-56
2023/10/04 10:31:21;;;;;;;9.33;3.23;;;15.60;99.90;;;;;;5017748;28;20455;-55
2023/10/04 10:33:49;;;;;;;12.30;4.33;;;15.60;99.90;;;;;;5018048;28;20439;-54
2023/10/04 10:36:23;;;;;;;6.03;3.07;;;15.70;99.90;;;;;;5010028;28;20530;-55
2023/10/04 10:38:50;;;;;;;8.20;3.37;;;15.70;99.90;;;;;;5009720;28;20487;-56
2023/10/04 10:42:03;;;;;;;12.50;3.10;;;15.70;99.90;;;;;;5012967;28;20470;-55
2023/10/04 10:44:39;;;;;;;7.27;2.63;;;15.60;99.90;;;;;;5014268;28;20440;-56
2023/10/04 10:47:25;;;;;;;11.87;3.57;;;15.70;99.90;;;;;;5010231;28;20494;-55
2023/10/04 10:49:58;;;;;;;27.07;5.63;;;15.70;99.90;;;;;;5011828;28;20468;-56
2023/10/04 10:52:30;;;;;;;12.13;3.83;;;15.70;99.90;;;;;;5009777;28;20458;-55
2023/10/04 10:54:59;;;;;;;7.83;2.83;;;15.70;99.90;;;;;;5012290;28;20922;-55
2023/10/04 10:57:28;;;;;;;10.10;2.77;;;15.80;99.90;;;;;;5013987;28;20483;-55
2023/10/04 10:59:57;;;;;;;14.50;3.93;;;15.90;99.90;;;;;;5007867;28;20464;-55
2023/10/04 11:02:25;;;;;;;9.67;3.00;;;15.90;99.90;;;;;;5008298;28;20456;-56
2023/10/04 11:04:53;;;;;;;9.43;3.40;;;15.90;99.90;;;;;;5017862;28;20487;-55
2023/10/04 11:07:21;;;;;;;8.00;3.03;;;15.80;99.90;;;;;;5018471;28;20494;-59
2023/10/04 11:09:52;;;;;;;6.13;2.80;;;15.90;99.90;;;;;;5011160;28;20474;-59
2023/10/04 11:12:21;;;;;;;12.07;3.70;;;16.00;99.90;;;;;;5013616;28;20494;-59
2023/10/04 11:14:48;;;;;;;13.90;4.23;;;16.10;99.90;;;;;;5009944;28;20519;-58
2023/10/04 11:17:16;;;;;;;8.50;3.03;;;16.10;99.90;;;;;;5013907;28;20522;-57
2023/10/04 11:19:44;;;;;;;13.43;3.70;;;16.20;99.90;;;;;;5018067;28;20456;-58
2023/10/04 11:22:14;;;;;;;13.90;4.10;;;16.20;99.90;;;;;;5011588;28;20974;-58
2023/10/04 11:24:41;;;;;;;11.17;3.80;;;16.10;99.90;;;;;;5026030;28;20463;-59
2023/10/04 11:27:08;;;;;;;11.40;3.67;;;16.00;99.90;;;;;;5020451;28;20540;-58
2023/10/04 11:29:35;;;;;;;14.03;4.17;;;15.90;99.90;;;;;;5014545;28;20462;-59
2023/10/04 11:32:02;;;;;;;21.97;4.40;;;15.80;99.90;;;;;;5009807;28;20529;-55
2023/10/04 11:34:36;;;;;;;7.67;3.30;;;15.80;99.90;;;;;;5018621;28;20479;-56
2023/10/04 11:37:04;;;;;;;12.70;3.83;;;15.80;99.90;;;;;;5011690;28;20483;-58
2023/10/04 11:39:34;;;;;;;21.03;3.53;;;16.00;99.90;;;;;;5008446;28;20924;-58
2023/10/04 11:42:02;;;;;;;6.43;3.10;;;16.10;99.90;;;;;;5009100;28;20468;-59
2023/10/04 11:44:30;;;;;;;8.40;3.00;;;16.20;99.90;;;;;;5018122;28;20531;-58
2023/10/04 11:46:58;;;;;;;8.70;3.30;;;16.30;99.90;;;;;;5024609;28;20484;-57
2023/10/04 11:49:27;;;;;;;7.80;3.20;;;16.40;99.90;;;;;;5019019;28;20540;-58
2023/10/04 11:51:58;;;;;;;13.60;4.10;;;16.40;99.90;;;;;;5015012;28;20514;-59
2023/10/04 11:54:26;;;;;;;6.47;2.73;;;16.60;99.90;;;;;;5021656;28;20577;-59
2023/10/04 11:56:53;;;;;;;12.77;3.80;;;16.70;91.90;;;;;;5013389;28;20667;-59
2023/10/04 11:59:29;;;;;;;14.23;4.50;;;16.60;99.90;;;;;;5005803;28;20499;-57
2023/10/04 12:01:55;;;;;;;13.37;4.30;;;16.80;99.90;;;;;;5007271;28;20471;-57
2023/10/04 12:04:22;;;;;;;12.37;3.50;;;16.90;85.20;;;;;;5011918;28;20459;-57
2023/10/04 12:09:20;;;;;;;20.60;4.27;;;17.00;73.20;;;;;;4988691;28;20833;-57
2023/10/04 12:11:47;;;;;;;7.20;3.27;;;16.90;23.80;;;;;;4994928;28;20774;-58
2023/10/04 12:14:14;;;;;;;10.30;4.03;;;16.80;27.30;;;;;;4988654;28;20480;-58
2023/10/04 12:16:42;;;;;;;9.40;4.13;;;16.70;39.80;;;;;;4993072;28;20548;-58
2023/10/04 12:19:09;;;;;;;10.37;3.90;;;16.60;35.30;;;;;;4961777;28;20474;-57
2023/10/04 12:21:37;;;;;;;10.97;3.30;;;16.50;40.70;;;;;;4974004;28;20453;-57
2023/10/04 12:24:04;;;;;;;18.00;4.17;;;16.50;40.70;;;;;;4975082;28;20475;-53
2023/10/04 12:26:33;;;;;;;17.27;3.67;;;16.50;37.60;;;;;;4973110;28;20850;-54
2023/10/04 12:29:00;;;;;;;14.53;4.30;;;16.80;37.80;;;;;;4974932;28;20562;-55
2023/10/04 12:31:26;;;;;;;10.60;3.60;;;16.80;52.20;;;;;;4974491;28;20461;-53
2023/10/04 12:33:55;;;;;;;12.70;3.80;;;16.80;52.90;;;;;;4976148;28;20508;-53
2023/10/04 12:36:22;;;;;;;14.50;5.03;;;16.80;59.80;;;;;;4974534;28;21061;-51
2023/10/04 12:38:50;;;;;;;10.90;4.03;;;16.80;67.90;;;;;;4972648;28;20489;-52
2023/10/04 12:41:17;;;;;;;20.10;4.33;;;16.90;63.20;;;;;;4971374;28;20959;-53
2023/10/04 12:43:45;;;;;;;10.07;3.80;;;17.10;76.50;;;;;;4971276;28;20474;-52
2023/10/04 12:46:11;;;;;;;13.90;5.20;;;17.20;84.10;;;;;;4968561;28;20438;-52
2023/10/04 12:48:38;;;;;;;15.70;4.60;;;17.50;96.40;;;;;;4974662;28;20485;-52
2023/10/04 12:51:04;;;;;;;11.97;3.80;;;17.40;99.90;;;;;;4981419;28;20558;-52
2023/10/04 12:53:31;;;;;;;7.30;3.93;;;17.30;99.90;;;;;;4971865;28;20959;-52